Archives de nos stations météo

Station météo de Chassignolles

Altitude de la station : 290 m






Données météorologiques pour le 09/02/2023
Date
Heure
Températures Humidité Point de rosée Vitesse
du vent
Direction Rafales Windchill Pression Pluviométrie
Cumul
Date
Heure
Températures Humidité Point de rosée Vitesse
du vent
Direction Rafales Windchill Pression Pluviométrie
Cumul
09/02/2023 07:31-3.7 °C87 %-5.6 °C2 km/hSSO3 km/h-4.4 1033 hPa-
09/02/2023 07:29-3.7 °C87 %-5.6 °C2 km/hSSO14 km/h-4.4 1033 hPa-
09/02/2023 07:16-3.3 °C88 %-5.0 °C-SSO3 km/h-3.3 1033 hPa-
09/02/2023 07:15-3.3 °C88 %-5.0 °C2 km/hSSO14 km/h-3.9 1033 hPa-
09/02/2023 07:01-3.2 °C87 %-5.0 °C-SSO5 km/h-3.3 1033 hPa-
09/02/2023 07:00-3.2 °C87 %-5.0 °C2 km/hSSO14 km/h-3.9 1033 hPa-
09/02/2023 06:46-3.2 °C87 %-5.0 °C2 km/hS3 km/h-3.9 1033 hPa-
09/02/2023 06:45-3.1 °C86 %-5.0 °C2 km/hS14 km/h-3.9 1033 hPa-
09/02/2023 06:31-2.8 °C86 %-5.0 °C2 km/hNNO2 km/h-3.3 1033 hPa-
09/02/2023 06:30-2.8 °C86 %-5.0 °C2 km/hNNO14 km/h-3.3 1033 hPa-
09/02/2023 06:16-2.2 °C84 %-4.4 °C2 km/hNNO3 km/h-2.8 1033 hPa-
09/02/2023 06:15-2.2 °C84 %-4.4 °C-NNO14 km/h-2.2 1033 hPa-
09/02/2023 06:01-1.9 °C84 %-4.4 °C-NNO2 km/h-1.7 1033 hPa-
09/02/2023 06:00-1.9 °C84 %-4.4 °C-NNO14 km/h-1.7 1033 hPa-
09/02/2023 05:46-1.7 °C84 %-3.9 °C-NNO5 km/h-1.7 1032 hPa-
09/02/2023 05:45-1.7 °C84 %-3.9 °C-NNO14 km/h-1.7 1032 hPa-
09/02/2023 05:31-1.8 °C85 %-3.9 °C2 km/hNNO5 km/h-2.2 1032 hPa-
09/02/2023 05:30-1.8 °C85 %-3.9 °C2 km/hNNO14 km/h-2.2 1032 hPa-
09/02/2023 05:15-1.6 °C84 %-3.9 °C3 km/hO3 km/h-2.8 1032 hPa-
09/02/2023 05:14-1.6 °C84 %-3.9 °C2 km/hO14 km/h-2.2 1032 hPa-
09/02/2023 05:00-1.2 °C83 %-3.9 °C----1.1 1032 hPa-
09/02/2023 04:59-1.2 °C83 %-3.9 °C-SSO14 km/h-1.1 1032 hPa-
09/02/2023 04:45-0.9 °C83 %-3.3 °C-SSO5 km/h-1.1 1032 hPa-
09/02/2023 04:44-0.9 °C83 %-3.3 °C-SSO14 km/h-1.1 1032 hPa-
09/02/2023 04:30-0.8 °C83 %-3.3 °C3 km/hS5 km/h-1.7 1032 hPa-
09/02/2023 04:29-0.8 °C83 %-3.3 °C3 km/hSSO14 km/h-1.7 1032 hPa-
09/02/2023 04:15-0.7 °C83 %-3.3 °C3 km/hSSO6 km/h-1.7 1031 hPa-
09/02/2023 04:14-0.7 °C83 %-3.3 °C3 km/hSSO14 km/h-1.7 1032 hPa-
09/02/2023 04:00-0.7 °C84 %-2.8 °C3 km/hSSO11 km/h-1.7 1031 hPa-
09/02/2023 03:59-0.7 °C84 %-2.8 °C6 km/hSSO14 km/h-2.2 1031 hPa-
09/02/2023 03:45-1.3 °C86 %-3.3 °C6 km/hSO14 km/h-3.3 1031 hPa-
09/02/2023 03:44-1.3 °C87 %-3.3 °C5 km/hSSO14 km/h-2.8 1031 hPa-
09/02/2023 03:30-3.3 °C92 %-4.4 °C5 km/hSO10 km/h-5.0 1031 hPa-
09/02/2023 03:15-4.8 °C90 %-6.1 °C3 km/hSSO6 km/h-6.1 1032 hPa-
09/02/2023 03:00-5.0 °C91 %-6.1 °C5 km/hSSO6 km/h-6.7 1032 hPa-
09/02/2023 02:45-5.3 °C91 %-6.7 °C3 km/hSSO6 km/h-6.1 1032 hPa-
09/02/2023 02:44-5.3 °C91 %-6.7 °C3 km/hSSO6 km/h-6.7 1032 hPa-
09/02/2023 02:30-5.4 °C91 %-6.7 °C3 km/hS6 km/h-6.7 1032 hPa-
09/02/2023 02:16-5.1 °C90 %-6.7 °C3 km/hSSO6 km/h-6.1 1032 hPa-
09/02/2023 02:15-5.1 °C90 %-6.7 °C2 km/hSSO6 km/h-5.6 1032 hPa-
09/02/2023 02:01-4.8 °C90 %-6.1 °C2 km/hS5 km/h-5.6 1032 hPa-
09/02/2023 02:00-4.8 °C90 %-6.1 °C2 km/hS6 km/h-5.6 1032 hPa-
09/02/2023 01:46-4.6 °C89 %-6.1 °C3 km/hSSO5 km/h-5.6 1032 hPa-
09/02/2023 01:45-4.5 °C89 %-6.1 °C2 km/hSSO6 km/h-5.0 1032 hPa-
09/02/2023 01:31-3.9 °C90 %-5.6 °C-S5 km/h-3.9 1032 hPa-
09/02/2023 01:30-4.0 °C90 %-5.6 °C-SSO6 km/h-3.9 1032 hPa-
09/02/2023 01:16-3.7 °C89 %-5.0 °C2 km/hSO6 km/h-4.4 1032 hPa-
09/02/2023 01:15-3.6 °C90 %-5.0 °C5 km/hSO6 km/h-5.0 1032 hPa-
09/02/2023 01:01-4.2 °C91 %-5.6 °C5 km/hSO6 km/h-6.1 1032 hPa-
09/02/2023 01:00-4.2 °C91 %-5.6 °C5 km/hSO6 km/h-6.1 1032 hPa-
09/02/2023 00:46-4.3 °C91 %-5.6 °C3 km/hSSO6 km/h-5.6 1032 hPa-
09/02/2023 00:45-4.4 °C91 %-5.6 °C5 km/hS6 km/h-6.1 1032 hPa-
09/02/2023 00:31-4.3 °C90 %-5.6 °C2 km/hS6 km/h-5.0 1032 hPa-
09/02/2023 00:30-4.3 °C90 %-5.6 °C3 km/hS6 km/h-5.6 1032 hPa-
09/02/2023 00:16-4.2 °C90 %-5.6 °C2 km/hS3 km/h-4.4 1032 hPa-
09/02/2023 00:15-4.1 °C90 %-5.6 °C-S5 km/h-3.9 1032 hPa-
09/02/2023 00:01-4.3 °C90 %-5.6 °C3 km/hS6 km/h-5.6 1032 hPa-
09/02/2023 00:00-4.3 °C90 %-5.6 °C3 km/hS3 km/h-5.6 1032 hPa-


Minima :

Température : -5.4 °C
Humidité : 83 %
Point de rosée : -6.7 °C
Vent moyen : 2 km/h
Windchill : -6.7
Pression atm. : 1031 hPa
Maxima :

Température : -0.7 °C
Humidité : 92 %
Point de rosée : -2.8 °C
Vent moyen : 6 km/h
Windchill : -1.1
Pression atm. : 1033 hPa
Rafales max : 14 km/h
Cumul de pluie sur 24H : 0 mm

Chassignolles est une commune du département Indre (36).
La station météorologique du réseau de l'association la plus proche de Chassignolles est celle de Beddes


Descriptif du réseau de station de l'association Météo Centre (R.S.M.C)

Carte de la région Centre - Val de Loire

Carte de la région Centre - Val de Loire couvert par notre réseau météorologique

L'association météo centre et ses bénévoles développent et gère ce réseau. Il regroupe des stations météorologiques semi-professionnelles de marque Davis Instruments et est notamment composé de Davis Vantage Pro 2 mais aussi de Davis Vantage Vue.

Ce sont des passionnés de météorologie qui, avec ou sans l'aide de l'association, implantent ce type de matériel depuis la création de notre organisation en 2011.

Les données de chaque station de réseau sont hébergées sur le serveur de l'association. Elles sont ensuite mises gratuitement à votre disposition sur cette page, mais également sur la carte d'observation météorologique du Centre - Val de Loire.

Certaines stations sont installées en dehors de notre région. Elles permettent d'avoir une vision plus large des conditions météorologiques autour de notre territoire, retrouvez ici la carte de notre réseau de station Météo Centre (R.S.M.C).

Notre réseau surveille donc en permanence les conditions météo dans la région Centre - Val de Loire. Si vous possédez du matériel météo de marque Davis, faite comme plus de 60 autres passionnés, contactez nous pour nous rejoindre.


Contenu des archives météo de notre réseau

Chaque station météo du réseau émet les données suivantes toutes les 15 à 30 minutes :

Station météorologique Davis Vantage Pro 2

Exemple de station météorologique du réseau de station Météo Centre

  • la température extérieure
  • l'humidité
  • le point de rosée
  • la vitesse du vent
  • la direction du vent
  • les rafales
  • le windchill (refroidissement éolien)
  • la pression
  • le cumul de pluie

Nous archivons ces informations météorologiques et nous les mettons gratuitement à disposition du grand public. Nous les partageons également avec des professionnels, des collectivités voire des établissements publics quand ils en expriment le besoin.

Toutefois, les archives des stations ne sont pas toutes aussi anciennes puisque les installations se déroulent année après année. Retrouvez ces archives météo pour la région Centre - Val de Loire en cliquant ici.

Merci à tous les propriétaires de stations météorologiques de partager leurs données mais aussi de les rendre accessibles au plus grand nombre.